ADDS METAR Data INFO
IDs: Format: Raw Decoded Include TAF

Data at: 1602 UTC 21 Sep 2017

Region: TOP
KATL 211552Z 16003KT 10SM FEW200 29/18 A3010 RMK AO2 SLP181 CB DSNT NW T02940183 $

KBOS 211554Z 02025G34KT 10SM FEW040 FEW140 BKN200 BKN250 20/11 A3002 RMK AO2 PK WND 01034/1549 SLP165 T02000111

KBWI 211554Z 02007KT 340V050 10SM FEW060 SCT160 BKN200 28/18 A3004 RMK AO2 SLP171 T02780178

KCLE 211551Z 33004KT 10SM FEW040 FEW250 31/18 A3012 RMK AO2 SLP192 T03110178 $

KCLT 211552Z 05007KT 010V070 10SM FEW065 FEW100 30/20 A3009 RMK AO2 SLP178 T03000200

KCVG 211552Z 27004KT 10SM FEW028 FEW080 29/23 A3012 RMK AO2 SLP188 T02890228

KDCA 211552Z 00000KT 10SM FEW035 FEW160 SCT250 29/18 A3005 RMK AO2 SLP175 T02890183

KDEN 211553Z 21018G23KT 10SM FEW220 27/M05 A2979 RMK AO2 SLP007 T02671050

KDFW 211553Z 17016G20KT 10SM BKN025 31/23 A2995 RMK AO2 SLP131 T03060228

KDTW 211553Z 20004KT 8SM FEW060 SCT250 28/22 A3009 RMK AO2 SLP184 T02780222

KEWR 211551Z 34014KT 10SM FEW040 FEW120 SCT200 BKN260 27/17 A3001 RMK AO2 SLP162 T02670172

KFLL 211553Z 05010KT 10SM SCT028 BKN038 BKN100 32/25 A2996 RMK AO2 SLP146 T03220250 $

KIAD 211552Z 00000KT 10SM FEW030 SCT150 27/18 A3007 RMK AO2 SLP180 T02720178

KIAH 211553Z 11006KT 7SM FEW009 BKN022 BKN250 28/25 A2999 RMK AO2 RAB27E50 TSB09E40 SLP154 CB DSNT NE AND NW MOV N P0002 T02780250

KJFK 211551Z 36011KT 10SM FEW037 FEW180 BKN260 26/17 A3001 RMK AO2 SLP161 T02610172

KLAS 211556Z 19010G21KT 10SM CLR 24/05 A2969 RMK AO2 SLP028 T02440050

KLAX 211553Z 26009KT 7SM SCT009 BKN021 BKN030 19/17 A2986 RMK AO2 RAB13E24 SLP111 P0000 T01940172

KLGA 211551Z 36011KT 10SM FEW040 SCT150 OVC250 26/18 A3000 RMK AO2 SLP160 T02610178

KMCO 211553Z 03011KT 10SM SCT033 SCT250 30/22 A3002 RMK AO2 SLP163 T03000222

KMDW 211553Z 20005KT 10SM FEW150 FEW200 BKN250 31/19 A3002 RMK AO2 SLP153 T03060194

KMEM 211554Z 21003KT 10SM FEW250 29/22 A3008 RMK AO2 SLP180 T02940217

KMIA 211553Z VRB03KT 10SM BKN035TCU 32/23 A2997 RMK AO2 SLP148 TCU NE-OHD-S T03220228

KMSP 211553Z 12012KT 10SM CLR 21/14 A2996 RMK AO2 SLP142 T02060139

KORD 211551Z 14004KT 10SM FEW100 SCT160 BKN250 31/18 A3002 RMK AO2 SLP159 T03060183

KPDX 211553Z 15004KT 10SM BKN014 BKN038 OVC055 10/09 A2995 RMK AO2 RAE49 SLP141 P0002 T01000094

KPHL 211554Z 02007KT 10SM FEW045 FEW180 SCT250 SCT300 29/17 A3003 RMK AO2 SLP167 T02890172 $

KPHX 211551Z 16008KT 10SM FEW150 28/08 A2980 RMK AO2 SLP073 T02780078

KPIT 211551Z 18003KT 10SM FEW028 27/18 A3013 RMK AO2 SLP202 T02670183

KSAN 211551Z 18010KT 10SM FEW025 SCT027 BKN040 21/14 A2991 RMK AO2 SLP127 T02060144

KSEA 211553Z 24004KT 10SM -RA BKN008 OVC014 11/09 A2992 RMK AO2 RAB50 CIG 007V011 SLP139 P0000 T01110094 $

KSFO 211556Z 30014G22KT 10SM FEW025 16/09 A2990 RMK AO2 SLP124 T01560089

KSLC 211554Z 34009KT 10SM FEW025 BKN037 BKN060 13/06 A2977 RMK AO2 SLP043 T01280056

KSTL 211551Z 12004KT 10SM FEW200 BKN250 29/23 A3004 RMK AO2 SLP160 T02890228

KTPA 211553Z 09007KT 10SM SCT120 SCT250 31/19 A3002 RMK AO2 SLP164 T03110189 $